Aranspass, Texas
Current Conditions -  °F | °C
As of 3:15 AM on Saturday 01 Nov 2014 (Local Time) from KTFP Reporting Station
Clear Clear  
Wind Chill: 60°   Ceiling: Unl
Heat Index: 60°   Visibility: 10mi
Dew Point: 47°   Wind: 9mph
Humidity: 63%   Direction: 40°NE
Pressure: 30.26"   Gusts: NA
Location:  27.9399°N, 97.1805°W
Report Text: KTFP 010815Z AUTO 04008KT 10SM CLR 16/09 A3026 RMK AO2 T01560086
Loading
Personal Weather Stations






























Interactive Weather Map
Tropical Storm Tracking
New forecast layout! Learn more

10-Day Weather Forecast

Advertisements
Track Severe Weather on mobile